Time;durP1;ratioP1;P1;durP2;ratioP2;P2;SDS_P1;SDS_P2;PMS_P1;PMS_P2;Temp;Humidity;BMP_temperature;BMP_pressure;BME280_temperature;BME280_humidity;BME280_pressure;Samples;Min_cycle;Max_cycle;Signal;HPM_P1;HPM_P2
2022/05/23 00:01:18;;;;;;;4.40;2.43;;;13.60;99.90;;;;;;6092871;23;20164;-80
2022/05/23 00:03:45;;;;;;;2.33;2.07;;;13.60;99.90;;;;;;6092036;23;20188;-84
2022/05/23 00:06:16;;;;;;;3.07;2.80;;;13.50;99.90;;;;;;6091569;23;20193;-81
2022/05/23 00:08:42;;;;;;;2.97;1.90;;;13.50;99.90;;;;;;6091469;23;20192;-83
2022/05/23 00:11:08;;;;;;;2.40;2.07;;;13.50;99.90;;;;;;6067624;23;20205;-80
2022/05/23 00:13:34;;;;;;;2.43;1.80;;;13.50;99.90;;;;;;6067846;23;20160;-84
2022/05/23 00:16:01;;;;;;;2.57;2.37;;;13.50;99.90;;;;;;6092524;23;20236;-79
2022/05/23 00:18:27;;;;;;;1.77;1.67;;;13.50;99.90;;;;;;6093132;23;20601;-81
2022/05/23 00:20:53;;;;;;;3.43;2.53;;;13.50;99.90;;;;;;6091242;23;20252;-81
2022/05/23 00:23:18;;;;;;;2.43;2.23;;;13.50;99.90;;;;;;6067734;23;20197;-82
2022/05/23 00:25:44;;;;;;;4.20;2.03;;;13.40;99.90;;;;;;6091537;23;20192;-83
2022/05/23 00:28:10;;;;;;;2.53;2.10;;;13.40;99.90;;;;;;6092468;23;20216;-82
2022/05/23 00:30:36;;;;;;;3.37;2.50;;;13.30;99.90;;;;;;6091299;23;20205;-82
2022/05/23 00:35:51;;;;;;;3.03;1.83;;;13.20;99.90;;;;;;6092828;23;20553;-83
2022/05/23 00:38:17;;;;;;;2.20;2.00;;;13.20;99.90;;;;;;6091454;23;20197;-81
2022/05/23 00:44:01;;;;;;;2.63;1.87;;;13.20;99.90;;;;;;6092694;23;20223;-81
2022/05/23 00:46:28;;;;;;;4.90;1.73;;;13.20;99.90;;;;;;6091732;23;20227;-81
2022/05/23 00:48:53;;;;;;;3.03;1.53;;;13.10;99.90;;;;;;6092215;23;20164;-81
2022/05/23 00:51:19;;;;;;;2.47;1.77;;;13.10;99.90;;;;;;6067507;23;20201;-81
2022/05/23 00:53:52;;;;;;;2.20;2.10;;;13.00;99.90;;;;;;6091393;23;20227;-81
2022/05/23 00:56:22;;;;;;;1.93;1.83;;;12.90;99.90;;;;;;6091316;23;20200;-83
2022/05/23 00:58:53;;;;;;;2.07;1.70;;;12.80;99.90;;;;;;6090819;23;20243;-83
2022/05/23 01:01:23;;;;;;;2.93;1.50;;;12.70;99.90;;;;;;6091344;23;20168;-82
2022/05/23 01:03:49;;;;;;;1.73;1.57;;;12.70;99.90;;;;;;6093461;23;20227;-82
2022/05/23 01:06:15;;;;;;;2.37;2.17;;;12.80;99.90;;;;;;6091557;23;20287;-85
2022/05/23 01:08:42;;;;;;;2.37;2.03;;;12.90;99.90;;;;;;6092793;23;20220;-80
2022/05/23 01:11:09;;;;;;;5.20;2.00;;;12.90;99.90;;;;;;6067401;23;20358;-84
2022/05/23 01:13:35;;;;;;;2.57;1.70;;;13.00;99.90;;;;;;6091088;23;20164;-86
2022/05/23 01:16:01;;;;;;;4.00;3.13;;;13.00;99.90;;;;;;6092080;23;20244;-82
2022/05/23 01:18:27;;;;;;;1.73;1.63;;;13.00;99.90;;;;;;6091750;23;20664;-81
2022/05/23 01:20:58;;;;;;;4.00;2.50;;;13.00;99.90;;;;;;6091120;23;20567;-82
2022/05/23 01:23:47;;;;;;;2.07;1.87;;;13.00;99.90;;;;;;6092906;23;20201;-82
2022/05/23 01:26:13;;;;;;;2.83;2.10;;;12.90;99.90;;;;;;6092924;23;20228;-82
2022/05/23 01:28:41;;;;;;;5.20;2.23;;;12.90;99.90;;;;;;6067425;23;20739;-82
2022/05/23 01:31:09;;;;;;;5.20;2.00;;;13.00;99.90;;;;;;6092149;23;20496;-81
2022/05/23 01:33:35;;;;;;;2.40;2.20;;;13.00;99.90;;;;;;6091103;23;20192;-81
2022/05/23 01:36:02;;;;;;;1.87;1.77;;;13.00;99.90;;;;;;6092640;23;20200;-85
2022/05/23 01:38:28;;;;;;;5.43;2.27;;;13.00;99.90;;;;;;6091668;23;20218;-82
2022/05/23 01:40:58;;;;;;;3.80;1.70;;;13.00;99.90;;;;;;6067354;23;20219;-84
2022/05/23 01:43:24;;;;;;;5.20;1.80;;;13.00;99.90;;;;;;6067517;23;20171;-83
2022/05/23 01:45:50;;;;;;;3.20;2.37;;;12.90;99.90;;;;;;6092033;23;20236;-84
2022/05/23 01:48:16;;;;;;;4.20;1.80;;;12.90;99.90;;;;;;6092726;23;20207;-84
2022/05/23 01:50:42;;;;;;;1.30;1.20;;;12.90;99.90;;;;;;6091418;23;20205;-85
2022/05/23 01:53:08;;;;;;;3.50;2.00;;;12.90;99.90;;;;;;6091267;23;20674;-85
2022/05/23 01:55:35;;;;;;;2.13;1.93;;;12.90;99.90;;;;;;6065644;23;20161;-84
2022/05/23 01:58:02;;;;;;;2.23;2.03;;;12.90;99.90;;;;;;6091679;23;20157;-87
2022/05/23 02:03:12;;;;;;;2.50;2.23;;;12.80;99.90;;;;;;6090153;23;20196;-85
2022/05/23 02:05:38;;;;;;;1.80;1.47;;;12.80;99.90;;;;;;6065626;23;20734;-87
2022/05/23 02:08:04;;;;;;;2.67;2.47;;;12.80;99.90;;;;;;6065600;23;20216;-87
2022/05/23 02:10:31;;;;;;;3.10;1.93;;;12.80;99.90;;;;;;6089659;23;20207;-83
2022/05/23 02:12:59;;;;;;;1.83;1.73;;;12.80;99.90;;;;;;6065828;23;20171;-87
2022/05/23 02:15:25;;;;;;;1.83;1.73;;;12.80;99.90;;;;;;6066143;23;20197;-84
2022/05/23 02:17:50;;;;;;;2.87;2.00;;;12.70;99.90;;;;;;6065323;23;20192;-82
2022/05/23 02:20:17;;;;;;;2.20;2.00;;;12.60;99.90;;;;;;6089336;23;20212;-83
2022/05/23 02:22:43;;;;;;;1.50;1.40;;;12.60;99.90;;;;;;6088965;23;20267;-84
2022/05/23 02:25:09;;;;;;;1.87;1.70;;;12.60;99.90;;;;;;6067656;23;20157;-81
2022/05/23 02:27:35;;;;;;;1.77;1.57;;;12.50;99.90;;;;;;6092620;23;20735;-87
2022/05/23 02:30:01;;;;;;;1.77;1.67;;;12.50;99.90;;;;;;6067124;23;20251;-81
2022/05/23 02:32:27;;;;;;;2.97;2.67;;;12.40;99.90;;;;;;6090924;23;20822;-82
2022/05/23 02:34:53;;;;;;;2.27;2.17;;;12.50;99.90;;;;;;6091273;23;20188;-84
2022/05/23 02:37:19;;;;;;;3.20;2.73;;;12.50;99.90;;;;;;6067488;23;20164;-84
2022/05/23 02:39:45;;;;;;;2.03;1.83;;;12.50;99.90;;;;;;6091480;23;20168;-87
2022/05/23 02:42:10;;;;;;;2.20;2.00;;;12.50;99.90;;;;;;6091202;23;20199;-82
2022/05/23 02:44:36;;;;;;;2.73;2.30;;;12.50;99.90;;;;;;6091389;23;20229;-81
2022/05/23 02:47:03;;;;;;;2.90;1.90;;;12.40;99.90;;;;;;6090985;23;20639;-83
2022/05/23 02:49:29;;;;;;;2.80;2.27;;;12.20;99.90;;;;;;6091511;23;20193;-81
2022/05/23 02:51:54;;;;;;;2.53;1.87;;;12.10;99.90;;;;;;6094563;23;20280;-84
2022/05/23 02:54:20;;;;;;;2.03;1.90;;;11.90;99.90;;;;;;6091012;23;20203;-81
2022/05/23 02:56:46;;;;;;;2.73;2.53;;;11.80;99.90;;;;;;6092320;23;20217;-86
2022/05/23 02:59:12;;;;;;;1.77;1.67;;;11.70;99.90;;;;;;6092490;23;20316;-83
2022/05/23 03:03:01;;;;;;;3.40;2.13;;;11.70;99.90;;;;;;6090936;23;20221;-84
2022/05/23 03:04:24;;;;;;;2.87;2.10;;;11.70;99.90;;;;;;6092134;23;20160;-82
2022/05/23 03:06:50;;;;;;;2.63;2.13;;;11.70;99.90;;;;;;6067646;23;20184;-85
2022/05/23 03:09:16;;;;;;;2.20;2.03;;;11.70;99.90;;;;;;6066798;23;20646;-84
2022/05/23 03:11:42;;;;;;;3.83;2.20;;;11.70;99.90;;;;;;6091948;23;20200;-83
2022/05/23 03:14:08;;;;;;;2.20;1.90;;;11.70;99.90;;;;;;6092340;23;20503;-81
2022/05/23 03:16:33;;;;;;;2.50;2.27;;;11.70;99.90;;;;;;6091600;23;20180;-82
2022/05/23 03:18:59;;;;;;;4.40;2.20;;;11.70;99.90;;;;;;6091168;23;20165;-84
2022/05/23 03:26:59;;;;;;;4.20;2.50;;;11.60;99.90;;;;;;6093422;23;20200;-83
2022/05/23 03:29:25;;;;;;;2.43;2.07;;;11.60;99.90;;;;;;6092512;23;20201;-85
2022/05/23 03:31:51;;;;;;;2.20;2.00;;;11.60;99.90;;;;;;6092415;23;20196;-84
2022/05/23 03:34:17;;;;;;;2.20;2.00;;;11.70;99.90;;;;;;6093303;23;20273;-86
2022/05/23 03:36:42;;;;;;;5.67;2.20;;;11.70;99.90;;;;;;6092300;23;20189;-82
2022/05/23 03:39:09;;;;;;;2.40;2.20;;;11.70;99.90;;;;;;6092279;23;20600;-84
2022/05/23 03:41:38;;;;;;;4.03;2.10;;;11.70;99.90;;;;;;6093940;23;20193;-83
2022/05/23 03:44:07;;;;;;;2.90;2.53;;;11.70;99.90;;;;;;6068655;23;20547;-82
2022/05/23 03:46:35;;;;;;;7.17;2.37;;;11.80;99.90;;;;;;6068308;23;20161;-84
2022/05/23 03:49:01;;;;;;;2.13;2.03;;;11.80;99.90;;;;;;6093087;23;20165;-82
2022/05/23 03:51:27;;;;;;;2.33;2.13;;;11.80;99.90;;;;;;6092374;23;20341;-84
2022/05/23 03:53:53;;;;;;;2.60;2.40;;;11.80;99.90;;;;;;6093853;23;20610;-84
2022/05/23 03:56:19;;;;;;;2.17;1.97;;;11.80;99.90;;;;;;6093830;23;20201;-81
2022/05/23 03:58:45;;;;;;;2.47;2.27;;;11.70;99.90;;;;;;6068246;23;20212;-86
2022/05/23 04:01:18;;;;;;;2.87;2.10;;;11.80;99.90;;;;;;6093301;23;20212;-83
2022/05/23 04:03:44;;;;;;;2.60;2.40;;;11.80;99.90;;;;;;6092684;23;20604;-84
2022/05/23 04:06:10;;;;;;;2.83;2.23;;;11.80;99.90;;;;;;6068046;23;20207;-83
2022/05/23 04:08:36;;;;;;;2.17;1.70;;;11.80;99.90;;;;;;6092403;23;20204;-84
2022/05/23 04:11:03;;;;;;;2.63;2.40;;;11.80;99.90;;;;;;6093599;23;20212;-81
2022/05/23 04:13:29;;;;;;;2.27;2.07;;;11.70;99.90;;;;;;6092924;23;20231;-81
2022/05/23 04:15:56;;;;;;;4.93;2.77;;;11.70;99.90;;;;;;6094181;23;20157;-81
2022/05/23 04:18:22;;;;;;;3.93;2.37;;;11.70;99.90;;;;;;6093716;23;20193;-82
2022/05/23 04:20:48;;;;;;;4.50;2.43;;;11.70;99.90;;;;;;6092726;23;20251;-83
2022/05/23 04:23:14;;;;;;;2.23;2.03;;;11.70;99.90;;;;;;6093687;23;20201;-85
2022/05/23 04:25:41;;;;;;;2.03;1.83;;;11.60;99.90;;;;;;6093008;23;20317;-85
2022/05/23 04:28:08;;;;;;;3.23;2.97;;;11.70;99.90;;;;;;6092812;23;20165;-82
2022/05/23 04:30:34;;;;;;;3.40;2.03;;;11.70;99.90;;;;;;6092797;23;20246;-81
2022/05/23 04:35:44;;;;;;;2.83;2.30;;;11.80;99.90;;;;;;6105917;23;20206;-87
2022/05/23 04:38:11;;;;;;;3.40;2.87;;;11.90;99.90;;;;;;6096704;23;20523;-83
2022/05/23 04:40:38;;;;;;;4.07;3.10;;;11.90;99.90;;;;;;6092122;23;20231;-82
2022/05/23 04:43:04;;;;;;;3.20;2.90;;;12.00;99.90;;;;;;6068805;23;20157;-83
2022/05/23 04:45:30;;;;;;;4.30;3.20;;;12.00;99.90;;;;;;6093440;23;20317;-84
2022/05/23 04:50:40;;;;;;;2.37;2.17;;;12.10;99.90;;;;;;6091080;23;20224;-85
2022/05/23 04:53:06;;;;;;;2.80;2.50;;;12.10;99.90;;;;;;6091047;23;20196;-86
2022/05/23 04:55:33;;;;;;;12.83;2.63;;;12.20;99.90;;;;;;6090937;23;20462;-83
2022/05/23 04:57:59;;;;;;;2.10;1.90;;;12.20;99.90;;;;;;6091905;23;20167;-85
2022/05/23 05:00:29;;;;;;;3.40;3.07;;;12.30;99.90;;;;;;6091284;23;20200;-85
2022/05/23 05:02:59;;;;;;;2.77;2.57;;;12.30;99.90;;;;;;6091514;23;20192;-87
2022/05/23 05:05:29;;;;;;;2.73;2.53;;;12.40;99.90;;;;;;6067852;23;20661;-86
2022/05/23 05:07:56;;;;;;;3.43;2.73;;;12.50;99.90;;;;;;6091801;23;20263;-83
2022/05/23 05:10:23;;;;;;;4.97;2.50;;;12.70;99.90;;;;;;6092464;23;20260;-84
2022/05/23 05:12:50;;;;;;;3.93;2.97;;;12.80;99.90;;;;;;6094191;23;20215;-85
2022/05/23 05:15:16;;;;;;;3.13;2.50;;;12.90;99.90;;;;;;6068373;23;20192;-86
2022/05/23 05:17:42;;;;;;;3.63;3.10;;;13.20;99.90;;;;;;6068222;23;20205;-83
2022/05/23 05:20:08;;;;;;;3.47;3.17;;;13.90;99.90;;;;;;6068146;23;20259;-82
2022/05/23 05:22:37;;;;;;;3.80;3.20;;;14.40;99.90;;;;;;6093261;23;20308;-85
2022/05/23 05:25:05;;;;;;;3.37;3.03;;;14.70;99.90;;;;;;6094146;23;20302;-83
2022/05/23 05:27:32;;;;;;;3.60;2.50;;;15.40;99.90;;;;;;6092915;23;20196;-82
2022/05/23 05:29:57;;;;;;;3.17;2.87;;;16.20;99.90;;;;;;6090895;23;20208;-82
2022/05/23 05:32:36;;;;;;;3.47;2.83;;;16.50;99.90;;;;;;6090962;23;20211;-86
2022/05/23 05:35:12;;;;;;;4.20;2.80;;;16.70;99.90;;;;;;6090802;23;20199;-83
2022/05/23 05:37:45;;;;;;;5.43;2.80;;;16.90;99.90;;;;;;6092658;23;20239;-82
2022/05/23 05:40:15;;;;;;;5.20;2.27;;;16.70;99.90;;;;;;6092442;23;20208;-84
2022/05/23 05:42:46;;;;;;;2.50;2.30;;;17.30;99.90;;;;;;6092888;23;20200;-84
2022/05/23 05:45:22;;;;;;;3.90;2.33;;;17.70;99.90;;;;;;6092897;23;20224;-85
2022/05/23 05:47:50;;;;;;;3.30;2.43;;;18.00;99.90;;;;;;6093001;23;20622;-82
2022/05/23 05:50:26;;;;;;;3.57;2.70;;;18.40;99.90;;;;;;6090774;23;20213;-82
2022/05/23 05:52:54;;;;;;;6.40;2.60;;;18.80;99.90;;;;;;6090597;23;20279;-82
2022/05/23 05:55:20;;;;;;;4.43;2.87;;;19.00;99.90;;;;;;6065430;23;20164;-85
2022/05/23 05:57:45;;;;;;;2.50;2.30;;;19.30;99.90;;;;;;6092241;23;20161;-82
2022/05/23 06:00:12;;;;;;;5.60;2.70;;;19.00;99.90;;;;;;6091985;23;20699;-82
2022/05/23 06:02:38;;;;;;;4.43;2.53;;;18.50;99.90;;;;;;6068460;23;20260;-82
2022/05/23 06:05:04;;;;;;;2.57;2.37;;;18.20;99.90;;;;;;6067497;23;20260;-83
2022/05/23 06:13:00;;;;;;;4.33;2.50;;;18.90;99.90;;;;;;6096572;23;20600;-86
2022/05/23 06:15:26;;;;;;;3.00;2.70;;;19.00;99.90;;;;;;6072187;23;20223;-83
2022/05/23 06:17:52;;;;;;;4.13;2.83;;;19.30;99.90;;;;;;6072520;23;20526;-84
2022/05/23 06:20:19;;;;;;;5.07;2.90;;;19.00;99.90;;;;;;6073034;23;20619;-84
2022/05/23 06:22:45;;;;;;;3.10;2.37;;;18.30;99.90;;;;;;6070642;23;20221;-85
2022/05/23 06:25:13;;;;;;;4.43;2.67;;;17.70;99.90;;;;;;6094699;23;20196;-85
2022/05/23 06:27:40;;;;;;;5.33;2.93;;;17.30;99.90;;;;;;6070372;23;20199;-86
2022/05/23 06:30:09;;;;;;;4.10;3.03;;;17.80;99.90;;;;;;6093927;23;20200;-86
2022/05/23 06:32:36;;;;;;;3.17;2.90;;;17.80;99.90;;;;;;6093015;23;20260;-84
2022/05/23 06:35:02;;;;;;;3.00;2.80;;;17.80;99.90;;;;;;6093899;23;20192;-82
2022/05/23 06:37:27;;;;;;;4.57;2.90;;;18.30;99.90;;;;;;6068962;23;20165;-83
2022/05/23 06:39:53;;;;;;;2.63;2.43;;;18.50;99.90;;;;;;6093611;23;20630;-86
2022/05/23 06:42:19;;;;;;;3.07;2.77;;;18.90;99.90;;;;;;6092631;23;20538;-84
2022/05/23 06:44:45;;;;;;;3.90;3.07;;;19.00;99.90;;;;;;6092677;23;20204;-83
2022/05/23 06:47:11;;;;;;;2.97;2.67;;;18.90;99.90;;;;;;6092516;23;20203;-84
2022/05/23 06:49:36;;;;;;;4.67;3.40;;;19.00;99.90;;;;;;6092680;23;20189;-82
2022/05/23 06:52:03;;;;;;;3.27;2.93;;;19.20;99.90;;;;;;6093010;23;20183;-84
2022/05/23 06:54:29;;;;;;;3.23;2.93;;;19.20;99.90;;;;;;6068885;23;20216;-84
2022/05/23 06:56:55;;;;;;;3.20;2.87;;;18.80;99.90;;;;;;6068651;23;20207;-84
2022/05/23 06:59:21;;;;;;;3.47;2.97;;;18.60;99.90;;;;;;6068879;23;20196;-82
2022/05/23 07:01:47;;;;;;;4.57;3.23;;;18.70;99.90;;;;;;6095465;23;20199;-85
2022/05/23 07:04:13;;;;;;;4.10;2.97;;;18.80;99.90;;;;;;6070070;23;20157;-85
2022/05/23 07:12:19;;;;;;;3.20;2.90;;;19.80;99.90;;;;;;6092053;23;20193;-83
2022/05/23 07:12:20;;;;;;;5.30;3.23;;;20.30;99.90;;;;;;6092849;23;20208;-82
2022/05/23 07:14:47;;;;;;;4.03;2.73;;;20.80;99.90;;;;;;6096169;23;20298;-86
2022/05/23 07:17:13;;;;;;;4.47;3.47;;;20.40;99.90;;;;;;6088852;23;20197;-87
2022/05/23 07:19:39;;;;;;;4.27;3.13;;;20.30;99.90;;;;;;6068583;23;20196;-82
2022/05/23 07:22:05;;;;;;;3.83;3.47;;;20.40;99.90;;;;;;6092657;23;20165;-83
2022/05/23 07:24:31;;;;;;;3.47;3.27;;;20.30;99.90;;;;;;6067794;23;20807;-85
2022/05/23 07:26:58;;;;;;;4.43;3.07;;;20.70;99.90;;;;;;6091806;23;20200;-84
2022/05/23 07:29:25;;;;;;;3.30;3.07;;;20.60;99.90;;;;;;6092075;23;20271;-84
2022/05/23 07:31:52;;;;;;;4.47;2.83;;;20.00;99.90;;;;;;6092271;23;20200;-82
2022/05/23 07:34:18;;;;;;;4.00;3.57;;;19.20;99.90;;;;;;6067658;23;20208;-81
2022/05/23 07:36:45;;;;;;;3.37;3.07;;;19.10;99.90;;;;;;6092625;23;20164;-82
2022/05/23 07:39:12;;;;;;;3.20;2.90;;;19.10;99.90;;;;;;6067837;23;20193;-82
2022/05/23 07:41:39;;;;;;;8.77;3.40;;;19.10;99.90;;;;;;6090971;23;20255;-83
2022/05/23 07:44:09;;;;;;;5.87;3.47;;;19.40;99.90;;;;;;6091724;23;20193;-82
2022/05/23 07:46:36;;;;;;;6.80;4.03;;;19.70;99.90;;;;;;6090626;23;20216;-84
2022/05/23 07:49:02;;;;;;;3.60;3.30;;;19.50;99.90;;;;;;6090848;23;20452;-87
2022/05/23 07:51:30;;;;;;;4.87;3.20;;;19.30;99.90;;;;;;6090625;23;20267;-82
2022/05/23 08:02:18;;;;;;;3.93;3.30;;;19.40;99.90;;;;;;6091851;23;20200;-84
2022/05/23 08:04:44;;;;;;;4.00;3.20;;;20.30;99.90;;;;;;6090175;23;20566;-81
2022/05/23 08:07:10;;;;;;;4.87;3.17;;;20.60;99.90;;;;;;6090837;23;20157;-81
2022/05/23 08:09:39;;;;;;;4.83;3.07;;;20.90;99.90;;;;;;6066626;23;20201;-83
2022/05/23 08:12:06;;;;;;;5.07;3.33;;;21.10;99.90;;;;;;6066531;23;20242;-82
2022/05/23 08:14:32;;;;;;;4.97;3.20;;;21.30;99.90;;;;;;6066480;23;20243;-84
2022/05/23 08:16:58;;;;;;;3.07;2.77;;;21.80;99.90;;;;;;6089881;23;20196;-85
2022/05/23 08:19:24;;;;;;;4.27;3.33;;;22.20;99.90;;;;;;6090462;23;20161;-83
2022/05/23 08:21:53;;;;;;;4.00;3.25;;;22.10;99.90;;;;;;6066822;23;20185;-84
2022/05/23 08:24:19;;;;;;;5.43;3.50;;;22.30;99.90;;;;;;6089895;23;20242;-85
2022/05/23 08:26:45;;;;;;;5.50;3.83;;;22.50;99.90;;;;;;6066547;23;20373;-83
2022/05/23 08:29:11;;;;;;;4.22;3.15;;;22.70;99.90;;;;;;6089905;23;20208;-85
2022/05/23 08:31:37;;;;;;;4.55;3.33;;;22.40;99.90;;;;;;6066174;23;20161;-85
2022/05/23 08:34:04;;;;;;;5.72;3.55;;;22.60;99.90;;;;;;6092339;23;20161;-83
2022/05/23 08:36:31;;;;;;;4.13;3.42;;;22.70;99.90;;;;;;6089724;23;20293;-81
2022/05/23 08:38:57;;;;;;;5.88;3.22;;;22.90;99.90;;;;;;6090184;23;20196;-86
2022/05/23 08:41:33;;;;;;;4.65;3.78;;;22.90;99.90;;;;;;6066532;23;20500;-80
2022/05/23 08:44:23;;;;;;;4.82;3.45;;;22.70;99.90;;;;;;6091527;23;20200;-83
2022/05/23 08:47:00;;;;;;;5.13;3.42;;;22.40;99.90;;;;;;6089852;23;20192;-82
2022/05/23 08:49:38;;;;;;;4.78;3.65;;;22.30;99.90;;;;;;6089680;23;20306;-81
2022/05/23 08:52:18;;;;;;;5.95;4.05;;;22.40;99.90;;;;;;6090229;23;20219;-87
2022/05/23 08:55:01;;;;;;;4.05;3.40;;;22.40;99.90;;;;;;6091829;23;20554;-82
2022/05/23 08:57:33;;;;;;;6.10;3.60;;;22.20;99.90;;;;;;6089663;23;20651;-83
2022/05/23 09:00:14;;;;;;;4.43;3.47;;;21.90;99.90;;;;;;6091494;23;20541;-82
2022/05/23 09:02:51;;;;;;;10.02;4.20;;;21.70;99.90;;;;;;6089839;23;20196;-84
2022/05/23 09:05:21;;;;;;;4.28;3.17;;;21.70;99.90;;;;;;6090233;23;20212;-82
2022/05/23 09:07:57;;;;;;;3.85;3.33;;;21.80;99.90;;;;;;6089773;23;20196;-81
2022/05/23 09:10:30;;;;;;;5.32;3.70;;;22.40;99.90;;;;;;6089662;23;20304;-84
2022/05/23 09:12:56;;;;;;;3.13;2.83;;;22.60;99.90;;;;;;6092224;23;20149;-84
2022/05/23 09:15:23;;;;;;;4.50;3.60;;;22.80;99.90;;;;;;6065762;23;20530;-82
2022/05/23 09:17:59;;;;;;;4.63;4.10;;;22.40;99.90;;;;;;6065591;23;20203;-83
2022/05/23 09:20:38;;;;;;;6.07;3.60;;;22.30;99.90;;;;;;6089727;23;20255;-86
2022/05/23 09:23:07;;;;;;;6.97;3.90;;;22.60;99.90;;;;;;6089543;23;20247;-83
2022/05/23 09:25:33;;;;;;;5.22;3.45;;;22.30;99.90;;;;;;6089940;23;20228;-83
2022/05/23 09:28:22;;;;;;;7.88;3.95;;;22.60;99.90;;;;;;6089900;23;20599;-83
2022/05/23 09:30:58;;;;;;;4.30;3.90;;;22.70;99.90;;;;;;6091563;23;20200;-84
2022/05/23 09:33:27;;;;;;;6.70;3.90;;;23.40;99.90;;;;;;6089832;23;20196;-82
2022/05/23 09:36:20;;;;;;;5.35;3.88;;;23.20;99.90;;;;;;6091209;23;20208;-86
2022/05/23 09:38:59;;;;;;;4.28;3.60;;;23.40;99.90;;;;;;6089509;23;20255;-83
2022/05/23 09:47:44;;;;;;;4.38;3.13;;;23.50;99.90;;;;;;6091030;23;20681;-83
2022/05/23 09:49:48;;;;;;;4.38;3.97;;;23.60;99.90;;;;;;6089768;23;20239;-82
2022/05/23 09:52:32;;;;;;;5.57;3.78;;;23.60;99.90;;;;;;6089891;23;20770;-83
2022/05/23 09:55:01;;;;;;;4.78;3.60;;;23.60;99.90;;;;;;6089566;23;20183;-83
2022/05/23 09:57:52;;;;;;;3.90;3.55;;;23.70;99.90;;;;;;6088415;23;20762;-82
2022/05/23 10:00:17;;;;;;;3.55;3.25;;;23.10;99.90;;;;;;6080816;23;20196;-83
2022/05/23 10:03:01;;;;;;;6.18;4.28;;;22.90;99.90;;;;;;6089068;23;20295;-83
2022/05/23 10:05:26;;;;;;;5.40;4.15;;;23.00;99.90;;;;;;6090991;23;20212;-83
2022/05/23 10:07:56;;;;;;;5.13;3.97;;;23.00;99.90;;;;;;6090125;23;20275;-83
2022/05/23 10:10:34;;;;;;;4.93;3.90;;;23.60;99.90;;;;;;6115139;23;20282;-85
2022/05/23 10:13:23;;;;;;;8.60;4.07;;;24.10;99.90;;;;;;6095821;23;20232;-82
2022/05/23 10:16:00;;;;;;;6.43;4.38;;;23.90;99.90;;;;;;6089981;23;20173;-81
2022/05/23 10:18:44;;;;;;;6.40;4.10;;;24.00;99.90;;;;;;6089513;23;20197;-83
2022/05/23 10:21:28;;;;;;;9.15;3.92;;;24.60;99.90;;;;;;6091290;23;20280;-83
2022/05/23 10:24:18;;;;;;;6.68;4.55;;;24.50;99.90;;;;;;6089199;23;20220;-83
2022/05/23 10:27:02;;;;;;;5.20;4.50;;;23.80;99.90;;;;;;6090950;23;20658;-86
2022/05/23 10:29:43;;;;;;;5.97;4.75;;;23.20;99.90;;;;;;6089616;23;20280;-86
2022/05/23 10:32:13;;;;;;;5.80;5.15;;;22.80;99.90;;;;;;6089574;23;20196;-84
2022/05/23 10:34:41;;;;;;;7.30;4.55;;;23.10;99.90;;;;;;6091181;23;20217;-83
2022/05/23 10:37:15;;;;;;;6.78;4.95;;;23.60;99.90;;;;;;6089836;23;20235;-83
2022/05/23 10:42:48;;;;;;;7.13;4.45;;;24.10;99.90;;;;;;6089694;23;20272;-83
2022/05/23 10:45:28;;;;;;;5.55;4.57;;;23.90;99.90;;;;;;6089824;23;20197;-83
2022/05/23 10:48:32;;;;;;;6.22;5.15;;;23.90;99.90;;;;;;6091107;23;20336;-84
2022/05/23 10:51:08;;;;;;;7.35;4.53;;;23.80;99.90;;;;;;6090861;23;20211;-84
2022/05/23 10:53:37;;;;;;;6.03;4.55;;;23.80;99.90;;;;;;6092456;23;20212;-86
2022/05/23 10:56:20;;;;;;;5.55;4.35;;;23.90;99.90;;;;;;6090831;23;20200;-84
2022/05/23 10:58:56;;;;;;;4.97;4.50;;;24.10;99.90;;;;;;6092304;23;20587;-85
2022/05/23 11:01:34;;;;;;;4.60;4.20;;;23.90;99.90;;;;;;6092256;23;20153;-84
2022/05/23 11:04:31;;;;;;;6.63;4.90;;;24.10;99.90;;;;;;6092853;23;20235;-82
2022/05/23 11:07:00;;;;;;;5.55;4.55;;;24.10;99.90;;;;;;6092929;23;20189;-83
2022/05/23 11:09:38;;;;;;;8.05;4.72;;;24.10;99.90;;;;;;6090812;23;20197;-86
2022/05/23 11:12:21;;;;;;;4.80;4.05;;;24.00;99.90;;;;;;6090822;23;20622;-82
2022/05/23 11:15:05;;;;;;;5.95;4.05;;;23.70;99.90;;;;;;6090782;23;20200;-82
2022/05/23 11:17:40;;;;;;;4.50;3.85;;;23.50;99.90;;;;;;6092201;23;20200;-83
2022/05/23 11:20:16;;;;;;;5.15;3.80;;;23.60;99.90;;;;;;6090557;23;20200;-83
2022/05/23 11:23:02;;;;;;;5.40;3.92;;;23.90;99.90;;;;;;6091233;23;20203;-84
2022/05/23 11:25:28;;;;;;;5.53;4.07;;;24.10;99.90;;;;;;6092190;23;20635;-84
2022/05/23 11:34:22;;;;;;;4.63;3.90;;;24.00;99.90;;;;;;6092261;23;20699;-85
2022/05/23 11:39:53;;;;;;;3.72;3.08;;;24.10;99.90;;;;;;6090958;23;20272;-82
2022/05/23 11:42:22;;;;;;;4.13;3.40;;;24.10;99.90;;;;;;6090742;23;20287;-83
2022/05/23 11:44:51;;;;;;;6.00;2.88;;;24.20;99.90;;;;;;6092043;23;20335;-85
2022/05/23 11:47:21;;;;;;;7.00;3.65;;;24.20;99.90;;;;;;6090012;23;20256;-86
2022/05/23 11:50:00;;;;;;;4.18;3.25;;;24.00;99.90;;;;;;6090084;23;20667;-85
2022/05/23 11:52:47;;;;;;;4.38;3.00;;;24.20;99.90;;;;;;6090464;23;20154;-80
2022/05/23 11:55:51;;;;;;;7.93;3.95;;;24.40;99.90;;;;;;6090839;23;20232;-82
2022/05/23 11:58:36;;;;;;;4.22;3.80;;;24.40;99.90;;;;;;6091350;23;20192;-82
2022/05/23 12:01:11;;;;;;;3.40;3.10;;;24.30;99.90;;;;;;6092063;23;20173;-83
2022/05/23 12:04:08;;;;;;;4.20;3.63;;;24.30;99.90;;;;;;6090180;23;20278;-83
2022/05/23 12:06:39;;;;;;;5.80;3.40;;;24.40;99.90;;;;;;6084688;23;20211;-85
2022/05/23 12:09:13;;;;;;;3.80;3.10;;;24.30;99.90;;;;;;6091521;23;20380;-83
2022/05/23 12:11:41;;;;;;;3.22;2.28;;;24.40;99.90;;;;;;6090057;23;20263;-82
2022/05/23 12:14:40;;;;;;;2.63;2.17;;;24.30;99.90;;;;;;6089601;23;20721;-86
2022/05/23 12:17:26;;;;;;;3.17;2.85;;;24.20;99.90;;;;;;6073838;23;20216;-82
2022/05/23 12:19:54;;;;;;;5.85;2.85;;;24.10;99.90;;;;;;6091773;23;20198;-81
2022/05/23 12:22:37;;;;;;;2.92;2.72;;;24.20;99.90;;;;;;6091666;23;20161;-82
2022/05/23 12:25:08;;;;;;;4.47;2.63;;;24.50;99.90;;;;;;6090330;23;20200;-85
2022/05/23 12:27:37;;;;;;;2.60;2.25;;;24.70;99.90;;;;;;6089677;23;20201;-82
2022/05/23 12:30:21;;;;;;;4.95;2.35;;;24.90;99.90;;;;;;6089913;23;20552;-86
2022/05/23 12:32:50;;;;;;;2.55;2.35;;;25.20;99.90;;;;;;6089737;23;20534;-84
2022/05/23 12:35:19;;;;;;;4.47;2.40;;;25.10;99.90;;;;;;6091435;23;20243;-83
2022/05/23 12:38:08;;;;;;;4.00;2.40;;;24.80;99.90;;;;;;6090213;23;20196;-83
2022/05/23 12:40:55;;;;;;;5.20;2.55;;;24.60;99.90;;;;;;6089924;23;20162;-85
2022/05/23 12:43:41;;;;;;;2.70;2.22;;;24.40;99.90;;;;;;6091785;23;20149;-83
2022/05/23 12:46:32;;;;;;;3.45;2.45;;;24.40;99.90;;;;;;6091694;23;20148;-81
2022/05/23 12:49:29;;;;;;;2.33;2.10;;;24.50;99.90;;;;;;6061345;23;20184;-83
2022/05/23 12:52:03;;;;;;;3.33;2.25;;;24.70;99.90;;;;;;6090017;23;20220;-81
2022/05/23 12:55:06;;;;;;;4.03;2.53;;;24.60;99.90;;;;;;6091180;23;20200;-81
2022/05/23 12:57:56;;;;;;;4.43;2.45;;;24.40;99.90;;;;;;6091172;23;20287;-83
2022/05/23 13:00:33;;;;;;;2.67;2.42;;;24.00;99.90;;;;;;6089519;23;20719;-81
2022/05/23 13:03:24;;;;;;;2.60;2.10;;;24.00;99.90;;;;;;6089813;23;20192;-82
2022/05/23 13:06:22;;;;;;;2.90;2.60;;;23.90;99.90;;;;;;6090079;23;20661;-81
2022/05/23 13:09:00;;;;;;;4.43;2.40;;;23.80;99.90;;;;;;6090708;23;20204;-87
2022/05/23 13:11:35;;;;;;;2.83;2.63;;;23.80;99.90;;;;;;6091067;23;20292;-83
2022/05/23 13:14:02;;;;;;;3.00;2.30;;;23.80;99.90;;;;;;6090026;23;20670;-84
2022/05/23 13:16:30;;;;;;;2.38;2.20;;;23.70;99.90;;;;;;6089886;23;20171;-82
2022/05/23 13:22:06;;;;;;;3.08;2.85;;;23.50;99.90;;;;;;6104825;23;20196;-81
2022/05/23 13:24:49;;;;;;;3.72;3.00;;;23.70;99.90;;;;;;6089555;23;20287;-85
2022/05/23 13:27:21;;;;;;;3.38;2.78;;;24.00;99.90;;;;;;6089590;23;20200;-82
2022/05/23 13:29:52;;;;;;;3.53;2.13;;;23.70;99.90;;;;;;6089471;23;20208;-83
2022/05/23 13:32:18;;;;;;;4.70;2.70;;;23.60;99.90;;;;;;6089211;23;20256;-82
2022/05/23 13:34:46;;;;;;;4.93;3.05;;;23.50;99.90;;;;;;6089230;23;20196;-82
2022/05/23 13:37:37;;;;;;;3.55;3.17;;;23.50;99.90;;;;;;6089766;23;20171;-82
2022/05/23 13:40:16;;;;;;;4.65;2.90;;;23.60;99.90;;;;;;6089625;23;20252;-82
2022/05/23 13:42:42;;;;;;;3.97;2.45;;;24.00;99.90;;;;;;6089651;23;20285;-81
2022/05/23 13:45:24;;;;;;;10.07;7.53;;;24.00;99.90;;;;;;6065361;23;20212;-85
2022/05/23 13:47:56;;;;;;;12.60;7.95;;;24.40;99.90;;;;;;6090659;23;20204;-82
2022/05/23 13:50:29;;;;;;;12.15;8.35;;;24.40;99.90;;;;;;6089809;23;20449;-84
2022/05/23 13:53:02;;;;;;;11.02;7.60;;;24.50;99.90;;;;;;6090874;23;20526;-84
2022/05/23 13:55:34;;;;;;;12.32;8.82;;;24.50;99.90;;;;;;6089309;23;20141;-83
2022/05/23 13:58:07;;;;;;;12.82;8.85;;;24.20;99.90;;;;;;6091236;23;20145;-84
2022/05/23 14:00:39;;;;;;;11.15;8.80;;;23.90;99.90;;;;;;6091427;23;20285;-82
2022/05/23 14:03:08;;;;;;;14.25;9.25;;;23.50;99.90;;;;;;6089330;23;20196;-85